• Join FlightAware (Why Join?)
  • Login
  • US Flag 
06:48AM EDT


 

Airport Tracker/Info


-or-


 

Live Flight TrackerFlight Track Log ✈ N803CM ✈ 18-Jul-2013 ✈ 20N - KLNS

Flight Track Log - Related Links

Times and Time Zones

All times are in EDT time to prevent confusion due to time zone crossing. See the N803CM flight status page for this flight to view local times or setup timezone preferences in your user account.

Time Position Orientation Groundspeed Altitude Reporting Facility
EDT Latitude Longitude Course Direction KTS MPH feet Rate Location/Type
01:08PM 41.8417 -74.1261 224° Southwest 129 148 8,600  Level Boston Center
01:09PM 41.8078 -74.1697 224° Southwest 155 178 8,600  Level Boston Center
01:10PM 41.7736 -74.2161 225° Southwest 176 203 8,600  Level Boston Center
01:11PM 41.7394 -74.2681 229° Southwest 181 208 8,600  Level Boston Center
01:12PM 41.7075 -74.3200 231° Southwest 186 214 8,600 -60 Level Boston Center
01:13PM 41.6733 -74.3717 228° Southwest 186 214 8,500 -60 Descending Boston Center
01:14PM 41.6389 -74.4206 227° Southwest 186 214 8,500  Level Boston Center
01:15PM 41.6089 -74.4669 229° Southwest 186 214 8,500  Level Boston Center
01:17PM 41.5612 -74.5180 219° Southwest  Level FlightAware Approximate
01:19PM 41.4361 -74.6839 224° Southwest 188 216 8,500  Level New York Center
01:20PM 41.4036 -74.7236 223° Southwest 188 216 8,500  Level New York Center
01:21PM 41.3603 -74.7789 224° Southwest 188 216 8,500  Level New York Center
01:22PM 41.3253 -74.8239 224° Southwest 188 216 8,500  Level New York Center
01:23PM 41.2861 -74.8711 222° Southwest 193 222 8,500  Level New York Center
01:24PM 41.3777 -74.7385 224° Southwest  Level FlightAware Approximate
01:24PM 41.2511 -74.9214 227° Southwest 193 222 8,500  Level New York Center
01:25PM 41.2164 -74.9633 222° Southwest 193 222 8,500  Level New York Center
01:26PM 41.1772 -75.0106 222° Southwest 193 222 8,500  Level New York Center
01:27PM 41.1358 -75.0603 222° Southwest 193 222 8,500  Level New York Center
01:28PM 41.0967 -75.1047 221° Southwest 193 222 8,500  Level New York Center
01:29PM 41.0575 -75.1517 222° Southwest 193 222 8,500  Level New York Center
01:30PM 41.0181 -75.1986 222° Southwest 198 228 8,500  Level New York Center
01:31PM 40.9789 -75.2456 222° Southwest 198 228 8,500  Level New York Center
01:32PM 40.9439 -75.2900 224° Southwest 198 228 8,500  Level New York Center
01:33PM 40.9047 -75.3367 222° Southwest 198 228 8,500  Level New York Center
01:34PM 40.8653 -75.3864 224° Southwest 198 228 8,500  Level New York Center
01:35PM 40.8258 -75.4331 222° Southwest 198 228 8,500  Level New York Center
01:36PM 40.7886 -75.4797 224° Southwest 198 228 8,500  Level New York Center
01:37PM 40.7511 -75.5292 225° Southwest 198 228 8,500  Level New York Center
01:38PM 40.7117 -75.5758 222° Southwest 193 222 8,500  Level New York Center
01:39PM 40.6789 -75.6172 224° Southwest 198 228 8,500 -60 Level New York Center
01:40PM 40.6369 -75.6717 225° Southwest 198 228 8,400  Descending New York Center
01:41PM 40.5994 -75.7211 225° Southwest 193 222 8,500  Climbing New York Center
01:42PM 40.5622 -75.7675 223° Southwest 193 222 8,400  Descending New York Center
01:43PM 40.5269 -75.8114 223° Southwest 193 222 8,500  Climbing New York Center
01:44PM 40.4894 -75.8578 223° Southwest 193 222 8,500 -540 Level New York Center
01:45PM 40.4397 -75.9006 213° Southwest 193 222 7,500 -1,200 Descending New York Center
01:46PM 40.3981 -75.9464 220° Southwest 211 243 6,200 -1,260 Descending New York Center
01:47PM 40.3442 -75.9858 209° Southwest 211 243 5,000 -1,080 Descending New York Center
01:48PM 40.3072 -76.0239 218° Southwest 197 227 4,100 -840 Descending New York Center
01:49PM 40.2692 -76.0783 228° Southwest 189 217 3,400 -660 Descending New York Center
01:50PM 40.2422 -76.1225 231° Southwest 183 211 2,800 -720 Descending New York Center
01:51PM 40.2067 -76.1742 228° Southwest 177 204 2,100 -660 Descending New York Center
01:52PM 40.1778 -76.2097 223° Southwest 177 204 1,500 -600 Descending New York Center
02:01PM 40.1311 -76.2598 227° Southwest  Level FlightAware Approximate
02:08PM 40.1167 -76.2833 43° Northeast  Level FlightAware Approximate
02:09PM 40.1224 -76.2944 43° Northeast  Level Estimated
02:10PM 40.1224 -76.2944 43° Northeast  Level Estimated
02:11PM 40.1224 -76.2944 43° Northeast  Level Estimated
02:12PM 40.1224 -76.2944 43° Northeast  Level Estimated
02:13PM 40.1224 -76.2944 43° Northeast  Level Estimated